Montpelier, Virginia
Current Conditions -  °F | °C
As of 10:55 PM on Sunday 21 Dec 2014 (Local Time) from K7W4 Reporting Station
Overcast Overcast  
Wind Chill: 31°   Ceiling: 4800
Heat Index: 31°   Visibility: 10mi
Dew Point: 27°   Wind: 0mph
Humidity: 85%   Direction: NA
Pressure: 30.3"   Gusts: NA
Location:  37.82°N, 77.68°W
Report Text: K7W4 220355Z AUTO 00000KT 10SM OVC048 00/M03 A3030 RMK AO1 T10051028
Loading
Personal Weather Stations






























Interactive Weather Map New forecast layout! Learn more

10-Day Weather Forecast

Advertisements
Track Severe Weather on mobile